sensor_id;sensor_type;location;lat;lon;timestamp;P1;durP1;ratioP1;P2;durP2;ratioP2
47021;SDS011;32779;52.264;6.154;2023-07-31T00:04:04;2.75;;;1.20;;
47021;SDS011;32779;52.264;6.154;2023-07-31T00:06:33;2.75;;;1.30;;
47021;SDS011;32779;52.264;6.154;2023-07-31T00:11:24;2.28;;;0.80;;
47021;SDS011;32779;52.264;6.154;2023-07-31T00:16:15;1.85;;;0.88;;
47021;SDS011;32779;52.264;6.154;2023-07-31T00:21:06;2.65;;;0.75;;
47021;SDS011;32779;52.264;6.154;2023-07-31T00:25:57;1.05;;;0.60;;
47021;SDS011;32779;52.264;6.154;2023-07-31T00:30:48;0.80;;;0.60;;
47021;SDS011;32779;52.264;6.154;2023-07-31T00:33:14;0.70;;;0.70;;
47021;SDS011;32779;52.264;6.154;2023-07-31T00:38:05;2.47;;;0.52;;
47021;SDS011;32779;52.264;6.154;2023-07-31T00:42:59;0.88;;;0.45;;
47021;SDS011;32779;52.264;6.154;2023-07-31T00:47:52;0.70;;;0.50;;
47021;SDS011;32779;52.264;6.154;2023-07-31T00:52:43;0.43;;;0.40;;
47021;SDS011;32779;52.264;6.154;2023-07-31T00:57:35;0.65;;;0.35;;
47021;SDS011;32779;52.264;6.154;2023-07-31T01:00:03;1.13;;;0.40;;
47021;SDS011;32779;52.264;6.154;2023-07-31T01:04:55;0.45;;;0.43;;
47021;SDS011;32779;52.264;6.154;2023-07-31T01:17:28;0.40;;;0.30;;
47021;SDS011;32779;52.264;6.154;2023-07-31T01:28:07;1.20;;;0.60;;
47021;SDS011;32779;52.264;6.154;2023-07-31T01:31:11;2.40;;;1.05;;
47021;SDS011;32779;52.264;6.154;2023-07-31T01:33:41;2.38;;;0.80;;
47021;SDS011;32779;52.264;6.154;2023-07-31T01:36:07;2.05;;;0.68;;
47021;SDS011;32779;52.264;6.154;2023-07-31T01:40:58;2.15;;;1.00;;
47021;SDS011;32779;52.264;6.154;2023-07-31T01:45:49;1.15;;;0.70;;
47021;SDS011;32779;52.264;6.154;2023-07-31T01:50:41;1.75;;;0.80;;
47021;SDS011;32779;52.264;6.154;2023-07-31T01:55:32;0.70;;;0.70;;
47021;SDS011;32779;52.264;6.154;2023-07-31T02:00:23;1.10;;;0.80;;
47021;SDS011;32779;52.264;6.154;2023-07-31T02:05:14;1.70;;;1.15;;
47021;SDS011;32779;52.264;6.154;2023-07-31T02:10:05;3.47;;;1.58;;
47021;SDS011;32779;52.264;6.154;2023-07-31T02:14:58;3.13;;;1.45;;
47021;SDS011;32779;52.264;6.154;2023-07-31T02:19:49;4.40;;;1.90;;
47021;SDS011;32779;52.264;6.154;2023-07-31T02:24:40;3.97;;;2.20;;
47021;SDS011;32779;52.264;6.154;2023-07-31T02:29:31;3.28;;;2.15;;
47021;SDS011;32779;52.264;6.154;2023-07-31T02:34:22;2.97;;;1.90;;
47021;SDS011;32779;52.264;6.154;2023-07-31T02:39:14;4.00;;;1.65;;
47021;SDS011;32779;52.264;6.154;2023-07-31T02:44:05;4.63;;;2.63;;
47021;SDS011;32779;52.264;6.154;2023-07-31T02:48:56;4.18;;;2.10;;
47021;SDS011;32779;52.264;6.154;2023-07-31T02:53:47;5.50;;;2.17;;
47021;SDS011;32779;52.264;6.154;2023-07-31T02:58:38;6.45;;;2.55;;
47021;SDS011;32779;52.264;6.154;2023-07-31T03:03:30;8.57;;;3.00;;
47021;SDS011;32779;52.264;6.154;2023-07-31T03:08:21;7.68;;;2.90;;
47021;SDS011;32779;52.264;6.154;2023-07-31T03:10:48;7.70;;;3.10;;
47021;SDS011;32779;52.264;6.154;2023-07-31T03:15:41;7.80;;;3.65;;
47021;SDS011;32779;52.264;6.154;2023-07-31T03:18:07;13.85;;;4.22;;
47021;SDS011;32779;52.264;6.154;2023-07-31T03:22:58;14.13;;;4.80;;
47021;SDS011;32779;52.264;6.154;2023-07-31T03:27:50;17.10;;;5.47;;
47021;SDS011;32779;52.264;6.154;2023-07-31T03:32:41;18.08;;;5.38;;
47021;SDS011;32779;52.264;6.154;2023-07-31T03:37:32;23.00;;;6.72;;
47021;SDS011;32779;52.264;6.154;2023-07-31T03:42:23;20.13;;;6.30;;
47021;SDS011;32779;52.264;6.154;2023-07-31T03:47:15;20.63;;;6.93;;
47021;SDS011;32779;52.264;6.154;2023-07-31T03:52:06;25.27;;;6.93;;
47021;SDS011;32779;52.264;6.154;2023-07-31T03:56:57;22.75;;;6.80;;
47021;SDS011;32779;52.264;6.154;2023-07-31T04:01:48;29.75;;;7.82;;
47021;SDS011;32779;52.264;6.154;2023-07-31T04:06:40;24.77;;;7.32;;
47021;SDS011;32779;52.264;6.154;2023-07-31T04:11:31;23.23;;;7.63;;
47021;SDS011;32779;52.264;6.154;2023-07-31T04:16:22;22.60;;;7.80;;
47021;SDS011;32779;52.264;6.154;2023-07-31T04:21:13;27.92;;;8.25;;
47021;SDS011;32779;52.264;6.154;2023-07-31T04:26:04;22.65;;;8.10;;
47021;SDS011;32779;52.264;6.154;2023-07-31T04:30:56;22.08;;;7.53;;
47021;SDS011;32779;52.264;6.154;2023-07-31T04:35:49;28.77;;;8.20;;
47021;SDS011;32779;52.264;6.154;2023-07-31T04:38:17;32.20;;;8.63;;
47021;SDS011;32779;52.264;6.154;2023-07-31T04:40:43;34.53;;;9.07;;
47021;SDS011;32779;52.264;6.154;2023-07-31T04:45:34;31.10;;;8.57;;
47021;SDS011;32779;52.264;6.154;2023-07-31T04:50:25;24.98;;;8.70;;
47021;SDS011;32779;52.264;6.154;2023-07-31T04:55:17;29.52;;;9.07;;
47021;SDS011;32779;52.264;6.154;2023-07-31T05:00:08;30.40;;;8.07;;
47021;SDS011;32779;52.264;6.154;2023-07-31T05:02:34;25.85;;;8.57;;
47021;SDS011;32779;52.264;6.154;2023-07-31T05:07:25;30.92;;;8.57;;
47021;SDS011;32779;52.264;6.154;2023-07-31T05:12:16;34.35;;;9.35;;
47021;SDS011;32779;52.264;6.154;2023-07-31T05:17:07;23.98;;;8.40;;
47021;SDS011;32779;52.264;6.154;2023-07-31T05:21:58;32.58;;;8.43;;
47021;SDS011;32779;52.264;6.154;2023-07-31T05:26:50;27.33;;;8.93;;
47021;SDS011;32779;52.264;6.154;2023-07-31T05:31:41;31.77;;;8.93;;
47021;SDS011;32779;52.264;6.154;2023-07-31T05:36:32;26.63;;;8.45;;
47021;SDS011;32779;52.264;6.154;2023-07-31T05:41:23;30.08;;;7.90;;
47021;SDS011;32779;52.264;6.154;2023-07-31T05:46:15;23.15;;;8.65;;
47021;SDS011;32779;52.264;6.154;2023-07-31T05:51:06;29.92;;;8.05;;
47021;SDS011;32779;52.264;6.154;2023-07-31T05:55:57;26.52;;;7.82;;
